Terminal Aerodrome Forecast
Issued by NWS

Home | Current Version | Previous Version | Text Only | Print | Product List | Glossary On
Versions: 1 2 3 4 5 6 7 8 9 10 11 12 13 14 15 16 17 18 19 20 21 22 23 24 25 26 27 28 29
000
FTUS46 KLOX 260800 AAA
TAFBUR
TAF AMD
KBUR 260852Z 2609/2706 33012KT P6SM SKC
     FM261200 36006KT P6SM SKC
     FM261700 07007KT P6SM SKC
     FM262000 19011KT P6SM SCT250
     FM270400 VRB05KT P6SM SKC=

USA.gov is the U.S. government's official web portal to all federal, state and local government web resources and services.